Terminal Aerodrome Forecast
Issued by NWS Atlanta, GA

Home | Current Version | Previous Version | Text Only | Print | Product List | Glossary On
Versions: 1 2 3 4 5 6 7 8 9 10 11 12 13 14 15 16 17 18 19 20 21 22 23 24 25 26 27 28 29 30 31 32 33 34 35 36 37
259
FTUS42 KFFC 230110 AAA
TAFATL
TAF AMD
KATL 230110Z 2301/2406 25006KT P6SM FEW050 SCT150
     FM230200 24004KT P6SM FEW120 SCT250
     FM231500 28006KT P6SM SCT035
     FM231700 23007KT P6SM VCSH BKN050 PROB30 2318/2322 4SM TSRA
      BKN035CB
     FM240200 30004KT P6SM SCT050 BKN250=

USA.gov is the U.S. government's official web portal to all federal, state and local government web resources and services.